createdAt,value
2022-12-25T00:01:36.353Z,98.11
2022-12-25T00:04:02.950Z,97.97
2022-12-25T00:06:29.652Z,97.98
2022-12-25T00:08:56.238Z,97.93
2022-12-25T00:11:22.814Z,97.78
2022-12-25T00:13:49.607Z,97.68
2022-12-25T00:16:22.705Z,97.67
2022-12-25T00:18:51.206Z,97.99
2022-12-25T00:21:19.479Z,97.94
2022-12-25T00:23:46.325Z,98.15
2022-12-25T00:26:16.198Z,98.01
2022-12-25T00:28:43.176Z,98.21
2022-12-25T00:31:12.511Z,97.74
2022-12-25T00:33:41.064Z,97.71
2022-12-25T00:36:09.370Z,97.57
2022-12-25T00:38:38.596Z,97.45
2022-12-25T00:41:17.449Z,97.45
2022-12-25T00:43:44.625Z,97.45
2022-12-25T00:46:13.328Z,97.58
2022-12-25T07:32:33.818Z,98.74
2022-12-25T07:35:00.469Z,98.57
2022-12-25T07:37:26.985Z,98.57
2022-12-25T07:39:53.571Z,98.62
2022-12-25T07:42:24.920Z,98.45
2022-12-25T07:44:51.895Z,98.28
2022-12-25T07:47:18.426Z,98.28
2022-12-25T07:49:44.960Z,98.12
2022-12-25T07:52:13.071Z,98.08
2022-12-25T07:54:39.823Z,97.99
2022-12-25T07:57:08.231Z,97.95
2022-12-25T07:59:34.864Z,97.82
2022-12-25T08:02:01.595Z,97.60
2022-12-25T08:04:29.348Z,97.26
2022-12-25T08:06:56.884Z,97.36
2022-12-25T08:09:29.180Z,97.36
2022-12-25T08:11:57.057Z,97.51
2022-12-25T08:14:27.302Z,97.00
2022-12-25T08:16:56.191Z,97.13
2022-12-25T08:19:23.070Z,97.13
2022-12-25T08:21:50.501Z,97.14
2022-12-25T08:24:17.084Z,97.13
2022-12-25T08:26:43.698Z,97.27
2022-12-25T08:29:10.268Z,97.47
2022-12-25T08:31:42.467Z,97.61
2022-12-25T08:34:12.604Z,97.75
2022-12-25T08:36:39.146Z,97.83
2022-12-25T08:39:06.161Z,97.90
2022-12-25T08:41:32.825Z,97.98
2022-12-25T08:43:59.432Z,98.07
2022-12-25T08:46:26.090Z,98.07
2022-12-25T08:48:52.669Z,98.02
2022-12-25T08:51:21.454Z,97.70
2022-12-25T08:53:49.233Z,97.67
2022-12-25T08:56:16.526Z,97.77
2022-12-25T08:58:43.338Z,97.61
2022-12-25T09:01:10.512Z,97.65
2022-12-25T09:03:37.258Z,97.62
2022-12-25T09:06:09.622Z,97.10
2022-12-25T09:08:39.803Z,96.97
2022-12-25T09:11:12.097Z,96.48
2022-12-25T09:13:39.110Z,96.80
2022-12-25T09:16:14.464Z,96.80
2022-12-25T09:18:41.128Z,96.88
2022-12-25T09:21:10.924Z,96.83
2022-12-25T09:23:41.992Z,96.96
2022-12-25T09:26:11.744Z,96.89
2022-12-25T09:28:38.486Z,96.55
2022-12-25T09:31:05.349Z,96.52
2022-12-25T09:33:32.008Z,96.90
2022-12-25T09:36:00.033Z,96.93
2022-12-25T09:38:28.301Z,96.95
2022-12-25T09:41:16.989Z,97.36
2022-12-25T09:44:11.369Z,97.52
2022-12-25T09:46:44.884Z,97.95
2022-12-25T09:49:22.846Z,98.18
2022-12-25T09:51:57.082Z,98.19
2022-12-25T09:54:53.161Z,98.15
2022-12-25T09:57:19.841Z,98.05
2022-12-25T09:59:47.568Z,98.18
2022-12-25T10:02:52.081Z,98.17
2022-12-25T10:05:33.588Z,98.42
2022-12-25T10:08:23.256Z,98.50
2022-12-25T10:11:30.937Z,98.66
2022-12-25T10:14:12.636Z,98.71
2022-12-25T10:16:48.356Z,98.84
2022-12-25T10:19:40.476Z,98.84
2022-12-25T10:22:25.691Z,98.88
2022-12-25T10:24:56.019Z,98.97
2022-12-25T10:27:34.220Z,99.03
2022-12-25T10:30:02.141Z,99.03
2022-12-25T10:32:28.729Z,99.06
2022-12-25T10:34:55.480Z,99.13
2022-12-25T10:37:22.119Z,99.13
2022-12-25T10:39:48.740Z,99.23
2022-12-25T10:42:40.826Z,99.23
2022-12-25T10:45:09.466Z,99.32
2022-12-25T10:47:42.669Z,99.33
2022-12-25T10:50:23.130Z,99.39
2022-12-25T10:53:02.265Z,99.36
2022-12-25T10:55:29.821Z,99.40
2022-12-25T10:57:58.037Z,99.44
2022-12-25T11:00:27.844Z,99.39
2022-12-25T11:02:54.820Z,99.47
2022-12-25T11:05:30.669Z,99.49
2022-12-25T11:08:00.169Z,99.46
2022-12-25T11:10:37.360Z,99.33
2022-12-25T11:13:08.660Z,99.36
2022-12-25T11:16:06.151Z,99.31
2022-12-25T11:18:48.162Z,99.21
2022-12-25T11:21:35.286Z,99.19
2022-12-25T11:24:06.913Z,99.08
2022-12-25T11:26:51.229Z,99.09
2022-12-25T11:29:27.090Z,99.14
2022-12-25T11:31:57.805Z,99.02
2022-12-25T11:34:32.015Z,99.09
2022-12-25T11:37:01.841Z,99.13
2022-12-25T11:39:37.419Z,99.20
2022-12-25T11:42:27.215Z,99.10
2022-12-25T11:45:04.174Z,99.10
2022-12-25T11:47:44.913Z,99.20
2022-12-25T11:50:27.277Z,99.21
2022-12-25T11:52:55.335Z,99.36
2022-12-25T11:55:26.980Z,99.43
2022-12-25T11:57:57.473Z,99.42
2022-12-25T12:00:24.420Z,99.42
2022-12-25T12:02:55.000Z,99.34
2022-12-25T12:05:28.865Z,99.39
2022-12-25T12:08:02.698Z,99.47
2022-12-25T12:10:55.409Z,99.36
2022-12-25T12:13:57.489Z,99.56
2022-12-25T12:16:24.231Z,99.54
2022-12-25T12:18:51.291Z,99.52
2022-12-25T12:21:17.846Z,99.53
2022-12-25T12:24:11.167Z,99.55
2022-12-25T12:26:42.557Z,99.58
2022-12-25T12:29:22.187Z,99.53
2022-12-25T12:31:50.467Z,99.52
2022-12-25T12:34:42.541Z,99.45
2022-12-25T12:37:25.147Z,99.53
2022-12-25T12:39:54.776Z,99.54
2022-12-25T12:42:26.156Z,99.59
2022-12-25T12:44:55.667Z,99.70
2022-12-25T12:47:41.162Z,99.68
2022-12-25T12:50:37.888Z,99.61
2022-12-25T12:53:23.351Z,99.54
2022-12-25T12:55:51.493Z,99.58
2022-12-25T12:58:50.122Z,99.60
2022-12-25T13:02:11.308Z,99.65
2022-12-25T13:05:00.977Z,99.83
2022-12-25T13:07:45.897Z,99.77
2022-12-25T13:10:35.004Z,99.85
2022-12-25T13:13:06.902Z,99.98
2022-12-25T13:15:35.194Z,99.90
2022-12-25T13:18:05.652Z,99.88
2022-12-25T13:20:38.454Z,99.88
2022-12-25T13:23:36.092Z,99.99
2022-12-25T13:26:12.425Z,99.99
2022-12-25T13:28:39.031Z,99.99
2022-12-25T13:31:11.416Z,99.99
2022-12-25T13:33:39.053Z,99.99
2022-12-25T13:36:10.983Z,99.99
2022-12-25T13:38:42.663Z,99.99
2022-12-25T13:41:28.098Z,99.99
2022-12-25T13:43:58.068Z,99.99
2022-12-25T13:46:27.501Z,99.99
2022-12-25T13:49:01.371Z,99.99
2022-12-25T13:51:28.880Z,99.99
2022-12-25T13:54:06.455Z,99.99
2022-12-25T13:56:34.724Z,99.99
2022-12-25T13:59:01.448Z,99.99
2022-12-25T14:01:28.838Z,99.99
2022-12-25T14:03:55.756Z,99.99
2022-12-25T14:06:28.190Z,99.99
2022-12-25T14:08:56.723Z,99.99
2022-12-25T14:11:25.815Z,99.99
2022-12-25T14:13:57.242Z,99.99
2022-12-25T14:16:24.476Z,99.99
2022-12-25T14:18:59.903Z,99.99
2022-12-25T14:21:38.349Z,99.91
2022-12-25T14:24:13.639Z,99.96
2022-12-25T14:26:40.307Z,99.99
2022-12-25T14:29:15.620Z,99.88
2022-12-25T14:31:44.862Z,99.90
2022-12-25T14:34:21.541Z,99.99
2022-12-25T14:36:49.465Z,99.99
2022-12-25T14:39:35.251Z,99.99
2022-12-25T14:42:37.861Z,99.99
2022-12-25T14:45:25.276Z,99.99
2022-12-25T14:47:54.710Z,99.99
2022-12-25T14:50:34.123Z,99.99
2022-12-25T14:53:01.009Z,99.99
2022-12-25T14:55:29.343Z,99.99
2022-12-25T14:58:08.151Z,99.99
2022-12-25T15:00:39.069Z,99.99
2022-12-25T15:03:17.772Z,99.99
2022-12-25T15:05:44.545Z,99.99
2022-12-25T15:08:11.367Z,99.99
2022-12-25T15:10:59.496Z,99.99
2022-12-25T15:13:27.505Z,99.99
2022-12-25T15:16:01.328Z,99.99
2022-12-25T15:18:33.275Z,99.99
2022-12-25T15:21:00.164Z,99.99
2022-12-25T15:23:27.101Z,99.99
2022-12-25T15:25:53.719Z,99.99
2022-12-25T15:28:20.903Z,99.99
2022-12-25T15:30:48.035Z,99.99
2022-12-25T15:33:16.308Z,99.99
2022-12-25T15:35:44.672Z,99.99
2022-12-25T15:38:13.187Z,99.99
2022-12-25T15:40:40.477Z,99.99
2022-12-25T15:43:14.515Z,99.99
2022-12-25T15:45:54.106Z,99.99
2022-12-25T15:48:20.648Z,99.99
2022-12-25T15:50:47.215Z,99.99
2022-12-25T15:53:14.193Z,99.99
2022-12-25T15:55:40.981Z,99.99
2022-12-25T15:58:12.324Z,99.99
2022-12-25T16:00:38.936Z,99.99
2022-12-25T16:03:05.607Z,99.99
2022-12-25T16:05:32.308Z,99.71
2022-12-25T16:07:58.904Z,99.41
2022-12-25T16:10:25.546Z,99.16
2022-12-25T16:12:52.089Z,98.84
2022-12-25T16:15:18.740Z,99.02
2022-12-25T16:17:45.312Z,99.20
2022-12-25T16:20:12.145Z,99.00
2022-12-25T16:22:42.024Z,99.10
2022-12-25T16:25:17.900Z,99.17
2022-12-25T16:27:45.004Z,99.23
2022-12-25T16:30:13.925Z,99.36
2022-12-25T16:32:42.342Z,99.41
2022-12-25T16:35:09.812Z,99.49
2022-12-25T16:37:36.939Z,99.46
2022-12-25T16:40:04.445Z,99.02
2022-12-25T16:42:31.078Z,98.80
2022-12-25T16:44:57.611Z,98.76
2022-12-25T16:47:24.161Z,98.53
2022-12-25T16:49:50.753Z,98.58
2022-12-25T16:52:17.354Z,98.77
2022-12-25T16:54:46.416Z,98.92
2022-12-25T16:57:13.885Z,98.92
2022-12-25T16:59:40.478Z,98.94
2022-12-25T17:02:07.210Z,98.69
2022-12-25T17:04:33.912Z,98.73
2022-12-25T17:07:00.477Z,99.15
2022-12-25T17:09:27.015Z,99.25
2022-12-25T17:11:53.597Z,99.18
2022-12-25T17:14:20.123Z,99.28
2022-12-25T17:16:46.743Z,99.33
2022-12-25T17:19:19.634Z,99.36
2022-12-25T17:21:46.832Z,99.40
2022-12-25T17:24:14.358Z,99.55
2022-12-25T17:26:41.673Z,99.66
2022-12-25T17:29:08.774Z,99.60
2022-12-25T17:31:35.394Z,99.61
2022-12-25T17:34:03.717Z,99.65
2022-12-25T17:36:31.364Z,99.51
2022-12-25T17:39:02.312Z,99.27
2022-12-25T17:41:29.353Z,99.20
2022-12-25T17:43:55.932Z,98.78
2022-12-25T17:46:24.920Z,98.60
2022-12-25T17:48:52.517Z,98.68
2022-12-25T17:51:21.460Z,98.57
2022-12-25T17:53:50.803Z,98.66
2022-12-25T17:56:18.335Z,98.71
2022-12-25T17:58:49.262Z,99.01
2022-12-25T18:01:16.832Z,99.30
2022-12-25T18:03:44.081Z,99.54
2022-12-25T18:06:15.295Z,99.72
2022-12-25T18:08:43.361Z,99.88
2022-12-25T18:11:16.045Z,99.97
2022-12-25T18:13:45.143Z,99.99
2022-12-25T18:16:13.191Z,99.96
2022-12-25T18:18:40.718Z,99.92
2022-12-25T18:21:08.345Z,99.94
2022-12-25T18:23:35.584Z,99.91
2022-12-25T18:26:03.853Z,99.81
2022-12-25T18:28:31.028Z,99.80
2022-12-25T18:30:57.810Z,99.87
2022-12-25T18:33:24.897Z,99.65
2022-12-25T18:35:59.900Z,99.68
2022-12-25T18:38:27.240Z,99.77
2022-12-25T18:40:53.830Z,99.81
2022-12-25T18:43:53.090Z,99.81
2022-12-25T18:46:10.161Z,99.56
2022-12-25T18:48:37.241Z,99.49
2022-12-25T18:51:09.160Z,99.58
2022-12-25T18:53:36.093Z,99.60
2022-12-25T18:56:12.427Z,99.23
2022-12-25T18:58:39.350Z,99.15
2022-12-25T19:01:21.609Z,99.16
2022-12-25T19:03:49.574Z,99.19
2022-12-25T19:06:21.354Z,99.19
2022-12-25T19:08:48.258Z,99.10
2022-12-25T19:11:15.524Z,98.89
2022-12-25T19:13:42.623Z,98.84
2022-12-25T19:16:09.606Z,98.95
2022-12-25T19:18:36.395Z,99.08
2022-12-25T19:21:07.716Z,98.81
2022-12-25T19:23:35.044Z,98.93
2022-12-25T19:26:05.181Z,98.96
2022-12-25T19:28:31.955Z,99.14
2022-12-25T19:31:02.024Z,99.15
2022-12-25T19:33:32.026Z,99.15
2022-12-25T19:36:11.101Z,99.07
2022-12-25T19:38:37.814Z,98.84
2022-12-25T19:41:09.199Z,98.81
2022-12-25T19:43:38.362Z,98.85
2022-12-25T19:46:06.506Z,99.05
2022-12-25T19:48:34.457Z,99.03
2022-12-25T19:51:01.145Z,98.96
2022-12-25T19:53:29.806Z,99.17
2022-12-25T19:56:00.811Z,99.22
2022-12-25T19:58:27.455Z,99.25
2022-12-25T20:01:05.132Z,99.19
2022-12-25T20:03:33.350Z,99.05
2022-12-25T20:06:01.733Z,98.88
2022-12-25T20:08:28.776Z,99.00
2022-12-25T20:10:55.364Z,99.09
2022-12-25T20:13:22.946Z,99.13
2022-12-25T20:15:49.621Z,98.98
2022-12-25T20:18:16.892Z,98.95
2022-12-25T20:20:44.850Z,98.88
2022-12-25T20:23:11.556Z,98.97
2022-12-25T20:25:42.174Z,98.74
2022-12-25T20:28:08.971Z,98.66
2022-12-25T20:30:39.178Z,98.65
2022-12-25T20:33:05.779Z,98.78
2022-12-25T20:35:32.352Z,98.87
2022-12-25T20:37:58.954Z,98.80
2022-12-25T20:40:25.857Z,98.80
2022-12-25T20:42:52.447Z,98.63
2022-12-25T20:45:18.937Z,98.57
2022-12-25T20:47:45.754Z,98.88
2022-12-25T20:50:12.384Z,98.98
2022-12-25T20:52:38.976Z,98.84
2022-12-25T20:55:06.037Z,98.71
2022-12-25T20:57:33.469Z,98.58
2022-12-25T21:00:00.050Z,98.70
2022-12-25T21:02:34.424Z,98.53
2022-12-25T21:05:04.712Z,98.54
2022-12-25T21:07:31.305Z,98.66
2022-12-25T21:09:59.216Z,98.65
2022-12-25T21:12:25.969Z,98.59
2022-12-25T21:14:52.580Z,98.49
2022-12-25T21:17:19.222Z,98.52
2022-12-25T21:19:45.799Z,98.40
2022-12-25T21:22:12.374Z,98.30
2022-12-25T21:24:38.933Z,98.72
2022-12-25T21:27:05.506Z,98.68
2022-12-25T21:29:32.182Z,98.68
2022-12-25T21:32:17.465Z,98.78
2022-12-25T21:34:44.340Z,98.88
2022-12-25T21:37:10.879Z,99.00
2022-12-25T21:39:37.494Z,99.04
2022-12-25T21:42:04.687Z,98.83
2022-12-25T21:44:31.322Z,98.83
2022-12-25T21:46:57.903Z,98.71
2022-12-25T21:49:43.183Z,98.66
2022-12-25T21:52:09.862Z,98.57
2022-12-25T21:54:36.798Z,98.54
2022-12-25T21:57:03.862Z,98.86
2022-12-25T21:59:30.396Z,99.01
2022-12-25T22:01:57.130Z,98.89
2022-12-25T22:04:23.990Z,98.82
2022-12-25T22:07:10.072Z,98.98
2022-12-25T22:09:37.295Z,99.24
2022-12-25T22:12:34.553Z,99.41
2022-12-25T22:15:06.759Z,99.52
2022-12-25T22:17:56.027Z,99.35
2022-12-25T22:20:24.113Z,99.34
2022-12-25T22:22:51.024Z,99.36
2022-12-25T22:25:18.051Z,99.34
2022-12-25T22:27:46.989Z,99.31
2022-12-25T22:30:25.856Z,99.30
2022-12-25T22:32:53.462Z,99.38
2022-12-25T22:35:20.650Z,99.31
2022-12-25T22:37:48.289Z,99.36
2022-12-25T22:40:17.565Z,99.33
2022-12-25T22:42:44.345Z,99.26
2022-12-25T22:45:11.628Z,99.30
2022-12-25T22:47:38.257Z,99.27
2022-12-25T22:50:05.196Z,99.24
2022-12-25T22:52:31.838Z,99.35
2022-12-25T22:54:58.358Z,99.17
2022-12-25T22:57:24.963Z,99.23
